Rothes, United Kingdom
Current Conditions -  °F | °C
As of 1:50 PM on Monday 20 Oct 2014 (Local Time) from EGQS Reporting Station
Broken Clouds Broken Clouds  
Wind Chill: 57°   Ceiling: 22000
Heat Index: 57°   Visibility: 6mi
Dew Point: 45°   Wind: 13mph
Humidity: 63%   Direction: 240°WSW
Pressure: 29.59"   Gusts: NA
Location:  57.53°N, 3.21°W
Report Text: EGQS 201250Z 24011KT 9999 FEW030 SCT052 BKN220 14/07 Q1002 BLU NOSIG
Loading
Personal Weather Stations






























Interactive Weather Map
Tropical Storm Tracking
New forecast layout! Learn more

10-Day Weather Forecast

Advertisements
Track Severe Weather on mobile